This is the latest recevied weather packets stored in our database for station/object KD0SBN-3. If no packets are shown the sender has not sent any weather packets the latest 10 day(s).
| Time | Temp. | Humidity | Pressure | Rain* | Wind** | Luminosity | Snow |
|---|---|---|---|---|---|---|---|
| 1777963832 | 4.44° C | 72% | 1020.9 hPa | 0 mm | - | 0 W/m² | - |
| 1777963528 | 4.44° C | 72% | 1020.9 hPa | 0 mm | - | 0 W/m² | - |
| 1777963227 | 4.44° C | 71% | 1020.9 hPa | 0 mm | - | 0 W/m² | - |
| 1777962924 | 4.44° C | 70% | 1021.2 hPa | 0 mm | - | 0 W/m² | - |
| 1777962620 | 4.44° C | 69% | 1020.8 hPa | 0 mm | - | 0 W/m² | - |
| 1777962317 | 5° C | 66% | 1020.9 hPa | 0 mm | - | 0 W/m² | - |
| 1777962014 | 5.56° C | 60% | 1020.9 hPa | 0 mm | - | 0 W/m² | - |
| 1777961712 | 5.56° C | 58% | 1020.7 hPa | 0 mm | - | 0 W/m² | - |
| 1777961409 | 5.56° C | 57% | 1020.9 hPa | 0 mm | - | 0 W/m² | - |
| 1777961106 | 6.11° C | 56% | 1021.1 hPa | 0 mm | - | 0 W/m² | - |
| 1777960802 | 6.67° C | 49% | 1020.8 hPa | 0 mm | - | 0 W/m² | - |
| 1777960498 | 7.22° C | 41% | 1020.8 hPa | 0 mm | - | 0 W/m² | - |
| 1777960195 | 8.33° C | 39% | 1020.8 hPa | 0 mm | - | 0 W/m² | - |
| 1777959893 | 8.89° C | 30% | 1020.6 hPa | 0 mm | - | 0 W/m² | - |
| 1777959590 | 8.89° C | 30% | 1020.6 hPa | 0 mm | - | 0 W/m² | - |
| 1777959287 | 9.44° C | 30% | 1020.8 hPa | 0 mm | - | 0 W/m² | - |
| 1777958984 | 9.44° C | 30% | 1020.6 hPa | 0 mm | - | 0 W/m² | - |
| 1777958681 | 9.44° C | 29% | 1020.8 hPa | 0 mm | - | 0 W/m² | - |
| 1777958378 | 9.44° C | 29% | 1020.9 hPa | 0 mm | - | 0 W/m² | - |
| 1777958075 | 8.89° C | 30% | 1021.1 hPa | 0 mm | - | 0 W/m² | - |
| 1777957773 | 8.89° C | 30% | 1021.2 hPa | 0 mm | - | 0 W/m² | - |
| 1777957471 | 8.89° C | 30% | 1021.2 hPa | 0 mm | - | 0 W/m² | - |
| 1777957168 | 9.44° C | 29% | 1021.2 hPa | 0 mm | - | 0 W/m² | - |
| 1777956865 | 9.44° C | 29% | 1021.1 hPa | 0 mm | - | 0 W/m² | - |
| 1777956562 | 9.44° C | 29% | 1020.9 hPa | 0 mm | - | 0 W/m² | - |
* Rain latest hour (hover to see other rain measurements)
** Current wind speed in m/s (hover to see current wind gust speed)